createdAt,value
2018-08-03T00:00:01.116Z,11.25
2018-08-03T00:01:01.460Z,5.63
2018-08-03T00:02:01.114Z,5.63
2018-08-03T00:03:01.443Z,11.25
2018-08-03T00:04:01.458Z,11.25
2018-08-03T00:05:01.102Z,11.25
2018-08-03T00:06:01.444Z,11.25
2018-08-03T00:07:01.436Z,16.88
2018-08-03T00:08:01.080Z,11.25
2018-08-03T00:09:01.419Z,11.25
2018-08-03T00:10:01.082Z,16.88
2018-08-03T00:11:01.394Z,11.25
2018-08-03T00:12:01.071Z,33.75
2018-08-03T00:13:01.052Z,11.25
2018-08-03T00:14:01.055Z,5.63
2018-08-03T00:15:01.395Z,5.63
2018-08-03T00:16:01.049Z,11.25
2018-08-03T00:17:01.022Z,5.63
2018-08-03T00:18:01.346Z,5.63
2018-08-03T00:19:01.355Z,5.63
2018-08-03T00:20:00.999Z,5.63
2018-08-03T00:21:01.326Z,5.63
2018-08-03T00:22:00.994Z,39.38
2018-08-03T00:23:01.315Z,33.75
2018-08-03T00:24:01.325Z,33.75
2018-08-03T00:25:01.311Z,16.88
2018-08-03T00:26:01.306Z,22.50
2018-08-03T00:27:01.293Z,11.25
2018-08-03T00:28:01.291Z,5.63
2018-08-03T00:29:01.272Z,5.63
2018-08-03T00:30:01.292Z,11.25
2018-08-03T00:31:01.278Z,11.25
2018-08-03T00:32:00.929Z,22.50
2018-08-03T00:33:01.266Z,28.13
2018-08-03T00:34:00.927Z,28.13
2018-08-03T00:35:01.254Z,11.25
2018-08-03T00:36:00.910Z,11.25
2018-08-03T00:37:00.895Z,11.25
2018-08-03T00:38:01.213Z,11.25
2018-08-03T00:39:01.209Z,11.25
2018-08-03T00:40:01.219Z,11.25
2018-08-03T00:41:00.871Z,5.63
2018-08-03T00:42:01.196Z,5.63
2018-08-03T00:43:00.845Z,5.63
2018-08-03T00:44:00.856Z,5.63
2018-08-03T00:45:01.189Z,5.63
2018-08-03T00:46:00.842Z,16.88
2018-08-03T00:47:00.827Z,16.88
2018-08-03T00:48:01.153Z,16.88
2018-08-03T00:49:00.828Z,16.88
2018-08-03T00:50:00.817Z,16.88
2018-08-03T00:51:00.803Z,11.25
2018-08-03T00:52:00.794Z,5.63
2018-08-03T00:53:00.785Z,5.63
2018-08-03T00:54:01.110Z,11.25
2018-08-03T00:55:01.122Z,11.25
2018-08-03T00:56:00.769Z,11.25
2018-08-03T00:57:00.765Z,11.25
2018-08-03T00:58:01.087Z,11.25
2018-08-03T00:59:00.766Z,11.25
2018-08-03T01:00:01.064Z,11.25
2018-08-03T01:01:00.744Z,5.63
2018-08-03T01:02:00.744Z,5.63
2018-08-03T01:03:01.052Z,11.25
2018-08-03T01:04:00.709Z,5.63
2018-08-03T01:05:01.041Z,11.25
2018-08-03T01:06:00.702Z,11.25
2018-08-03T01:07:00.709Z,11.25
2018-08-03T01:08:01.022Z,11.25
2018-08-03T01:09:01.032Z,11.25
2018-08-03T01:10:01.003Z,11.25
2018-08-03T01:11:01.001Z,11.25
2018-08-03T01:12:01.010Z,5.63
2018-08-03T01:13:00.990Z,5.63
2018-08-03T01:14:00.672Z,11.25
2018-08-03T01:15:00.661Z,5.63
2018-08-03T01:16:00.985Z,11.25
2018-08-03T01:17:00.980Z,16.88
2018-08-03T01:18:00.640Z,11.25
2018-08-03T01:19:00.642Z,11.25
2018-08-03T01:20:00.952Z,11.25
2018-08-03T01:21:00.944Z,16.88
2018-08-03T01:22:00.950Z,11.25
2018-08-03T01:23:00.942Z,11.25
2018-08-03T01:24:00.941Z,16.88
2018-08-03T01:25:00.594Z,11.25
2018-08-03T01:26:00.922Z,11.25
2018-08-03T01:27:00.906Z,16.88
2018-08-03T01:28:00.891Z,16.88
2018-08-03T01:29:00.886Z,11.25
2018-08-03T01:30:00.881Z,16.88
2018-08-03T01:31:00.878Z,16.88
2018-08-03T01:32:00.884Z,11.25
2018-08-03T01:33:00.532Z,11.25
2018-08-03T01:34:00.527Z,11.25
2018-08-03T01:35:00.844Z,11.25
2018-08-03T01:36:00.849Z,5.63
2018-08-03T01:37:00.851Z,11.25
2018-08-03T01:38:00.827Z,5.63
2018-08-03T01:39:00.829Z,11.25
2018-08-03T01:40:00.815Z,11.25
2018-08-03T01:41:00.478Z,11.25
2018-08-03T01:42:00.801Z,16.88
2018-08-03T01:43:00.812Z,16.88
2018-08-03T01:44:00.804Z,16.88
2018-08-03T01:45:00.782Z,16.88
2018-08-03T01:46:00.461Z,16.88
2018-08-03T01:47:00.766Z,16.88
2018-08-03T01:48:00.433Z,16.88
2018-08-03T01:49:00.438Z,16.88
2018-08-03T01:50:00.768Z,16.88
2018-08-03T01:51:00.420Z,16.88
2018-08-03T01:52:00.763Z,16.88
2018-08-03T01:53:00.389Z,16.88
2018-08-03T01:54:00.742Z,16.88
2018-08-03T01:55:00.428Z,16.88
2018-08-03T01:56:00.707Z,16.88
2018-08-03T01:57:00.386Z,16.88
2018-08-03T01:58:00.700Z,16.88
2018-08-03T01:59:00.697Z,16.88
2018-08-03T02:00:00.685Z,22.50
2018-08-03T02:01:00.679Z,16.88
2018-08-03T02:02:00.335Z,22.50
2018-08-03T02:03:00.341Z,22.50
2018-08-03T02:04:00.678Z,22.50
2018-08-03T02:05:00.336Z,22.50
2018-08-03T02:06:00.651Z,16.88
2018-08-03T02:07:00.316Z,22.50
2018-08-03T02:08:00.633Z,16.88
2018-08-03T02:09:00.297Z,16.88
2018-08-03T02:10:00.621Z,16.88
2018-08-03T02:11:00.295Z,16.88
2018-08-03T02:12:00.625Z,16.88
2018-08-03T02:13:00.604Z,16.88
2018-08-03T02:14:00.265Z,16.88
2018-08-03T02:15:00.275Z,16.88
2018-08-03T02:16:00.601Z,16.88
2018-08-03T02:17:00.264Z,16.88
2018-08-03T02:18:00.260Z,16.88
2018-08-03T02:19:00.560Z,16.88
2018-08-03T02:20:00.248Z,16.88
2018-08-03T02:21:00.572Z,16.88
2018-08-03T02:22:00.565Z,16.88
2018-08-03T02:23:00.556Z,16.88
2018-08-03T02:24:00.536Z,16.88
2018-08-03T02:25:00.547Z,16.88
2018-08-03T02:26:00.539Z,16.88
2018-08-03T02:27:00.186Z,16.88
2018-08-03T02:28:00.170Z,16.88
2018-08-03T02:29:00.524Z,16.88
2018-08-03T02:30:00.185Z,16.88
2018-08-03T02:31:00.178Z,16.88
2018-08-03T02:32:00.483Z,16.88
2018-08-03T02:33:00.161Z,16.88
2018-08-03T02:34:00.491Z,5.63
2018-08-03T02:35:00.156Z,16.88
2018-08-03T02:36:00.468Z,11.25
2018-08-03T02:37:00.128Z,11.25
2018-08-03T02:38:00.112Z,11.25
2018-08-03T02:39:00.464Z,11.25
2018-08-03T02:40:00.424Z,11.25
2018-08-03T02:41:00.090Z,11.25
2018-08-03T02:42:00.108Z,11.25
2018-08-03T02:43:00.099Z,11.25
2018-08-03T02:44:00.069Z,11.25
2018-08-03T02:45:00.418Z,11.25
2018-08-03T02:46:00.402Z,11.25
2018-08-03T02:47:00.413Z,11.25
2018-08-03T02:48:00.076Z,11.25
2018-08-03T02:49:00.393Z,11.25
2018-08-03T02:50:00.043Z,11.25
2018-08-03T02:51:00.042Z,11.25
2018-08-03T02:52:00.374Z,11.25
2018-08-03T02:53:00.033Z,11.25
2018-08-03T02:54:00.351Z,11.25
2018-08-03T02:55:00.356Z,11.25
2018-08-03T02:56:00.006Z,11.25
2018-08-03T02:57:00.324Z,11.25
2018-08-03T02:57:59.993Z,11.25
2018-08-03T02:58:59.969Z,11.25
2018-08-03T02:59:59.991Z,11.25
2018-08-03T03:00:59.962Z,11.25
2018-08-03T03:02:00.301Z,11.25
2018-08-03T03:03:00.289Z,11.25
2018-08-03T03:03:59.954Z,11.25
2018-08-03T03:05:00.276Z,11.25
2018-08-03T03:06:00.296Z,11.25
2018-08-03T03:07:00.271Z,11.25
2018-08-03T03:08:00.274Z,11.25
2018-08-03T03:09:00.251Z,11.25
2018-08-03T03:09:59.907Z,11.25
2018-08-03T03:10:59.922Z,11.25
2018-08-03T03:11:59.903Z,11.25
2018-08-03T03:12:59.912Z,5.63
2018-08-03T03:13:59.895Z,11.25
2018-08-03T03:14:59.895Z,5.63
2018-08-03T03:16:00.211Z,5.63
2018-08-03T03:16:59.873Z,5.63
2018-08-03T03:18:00.204Z,5.63
2018-08-03T03:19:00.207Z,5.63
2018-08-03T03:19:59.873Z,5.63
2018-08-03T03:20:59.863Z,5.63
2018-08-03T03:22:00.169Z,5.63
2018-08-03T03:22:59.851Z,0.00
2018-08-03T03:23:59.843Z,0.00
2018-08-03T03:24:59.827Z,5.63
2018-08-03T03:25:59.832Z,5.63
2018-08-03T03:26:59.805Z,5.63
2018-08-03T03:28:00.135Z,5.63
2018-08-03T03:28:59.803Z,5.63
2018-08-03T03:29:59.814Z,5.63
2018-08-03T03:31:00.628Z,5.63
2018-08-03T03:32:00.128Z,5.63
2018-08-03T03:33:00.102Z,5.63
2018-08-03T03:34:00.113Z,5.63
2018-08-03T03:35:00.088Z,5.63
2018-08-03T03:36:00.084Z,5.63
2018-08-03T03:37:00.073Z,5.63
2018-08-03T03:38:00.070Z,5.63
2018-08-03T03:38:59.745Z,5.63
2018-08-03T03:40:00.056Z,5.63
2018-08-03T03:41:00.046Z,5.63
2018-08-03T03:42:00.053Z,5.63
2018-08-03T03:43:00.057Z,5.63
2018-08-03T03:43:59.709Z,5.63
2018-08-03T03:45:00.037Z,5.63
2018-08-03T03:45:59.697Z,5.63
2018-08-03T03:46:59.686Z,5.63
2018-08-03T03:48:00.026Z,5.63
2018-08-03T03:48:59.669Z,5.63
2018-08-03T03:50:00.033Z,5.63
2018-08-03T03:50:59.692Z,5.63
2018-08-03T03:51:59.990Z,5.63
2018-08-03T03:52:59.648Z,5.63
2018-08-03T03:53:59.986Z,5.63
2018-08-03T03:54:59.643Z,5.63
2018-08-03T03:55:59.661Z,5.63
2018-08-03T03:56:59.631Z,5.63
2018-08-03T03:57:59.625Z,5.63
2018-08-03T03:58:59.937Z,5.63
2018-08-03T03:59:59.603Z,5.63
2018-08-03T04:00:59.927Z,5.63
2018-08-03T04:01:59.943Z,5.63
2018-08-03T04:02:59.614Z,5.63
2018-08-03T04:03:59.590Z,0.00
2018-08-03T04:04:59.923Z,5.63
2018-08-03T04:05:59.580Z,0.00
2018-08-03T04:06:59.909Z,0.00
2018-08-03T04:07:59.881Z,0.00
2018-08-03T04:08:59.542Z,0.00
2018-08-03T04:09:59.554Z,0.00
2018-08-03T04:10:59.553Z,0.00
2018-08-03T04:11:59.874Z,5.63
2018-08-03T04:12:59.873Z,5.63
2018-08-03T04:13:59.833Z,5.63
2018-08-03T04:14:59.528Z,5.63
2018-08-03T04:15:59.847Z,5.63
2018-08-03T04:16:59.492Z,5.63
2018-08-03T04:17:59.813Z,5.63
2018-08-03T04:18:59.815Z,5.63
2018-08-03T04:19:59.492Z,0.00
2018-08-03T04:20:59.468Z,0.00
2018-08-03T04:21:59.807Z,0.00
2018-08-03T04:22:59.787Z,0.00
2018-08-03T04:23:59.779Z,5.63
2018-08-03T04:24:59.788Z,0.00
2018-08-03T04:25:59.425Z,0.00
2018-08-03T04:26:59.433Z,0.00
2018-08-03T04:27:59.753Z,5.63
2018-08-03T04:28:59.416Z,5.63
2018-08-03T04:29:59.753Z,5.63
2018-08-03T04:30:59.749Z,5.63
2018-08-03T04:31:59.746Z,5.63
2018-08-03T04:32:59.736Z,5.63
2018-08-03T04:33:59.732Z,5.63
2018-08-03T04:34:59.384Z,5.63
2018-08-03T04:35:59.385Z,5.63
2018-08-03T04:36:59.367Z,5.63
2018-08-03T04:37:59.352Z,5.63
2018-08-03T04:38:59.759Z,5.63
2018-08-03T04:39:59.696Z,5.63
2018-08-03T04:40:59.675Z,5.63
2018-08-03T04:41:59.368Z,5.63
2018-08-03T04:42:59.659Z,5.63
2018-08-03T04:43:59.347Z,5.63
2018-08-03T04:44:59.329Z,5.63
2018-08-03T04:45:59.319Z,5.63
2018-08-03T04:46:59.337Z,5.63
2018-08-03T04:47:59.625Z,5.63
2018-08-03T04:48:59.635Z,5.63
2018-08-03T04:49:59.616Z,5.63
2018-08-03T04:50:59.304Z,5.63
2018-08-03T04:51:59.601Z,5.63
2018-08-03T04:52:59.614Z,5.63
2018-08-03T04:53:59.606Z,5.63
2018-08-03T04:54:59.601Z,5.63
2018-08-03T04:55:59.248Z,5.63
2018-08-03T04:56:59.242Z,5.63
2018-08-03T04:57:59.230Z,5.63
2018-08-03T04:58:59.576Z,5.63
2018-08-03T04:59:59.553Z,5.63
2018-08-03T05:00:59.231Z,5.63
2018-08-03T05:01:59.532Z,5.63
2018-08-03T05:02:59.532Z,5.63
2018-08-03T05:03:59.525Z,5.63
2018-08-03T05:04:59.200Z,5.63
2018-08-03T05:05:59.509Z,5.63
2018-08-03T05:06:59.506Z,5.63
2018-08-03T05:07:59.515Z,5.63
2018-08-03T05:08:59.490Z,5.63
2018-08-03T05:09:59.479Z,5.63
2018-08-03T05:10:59.166Z,5.63
2018-08-03T05:11:59.156Z,5.63
2018-08-03T05:12:59.501Z,5.63
2018-08-03T05:13:59.479Z,5.63
2018-08-03T05:14:59.482Z,5.63
2018-08-03T05:15:59.448Z,5.63
2018-08-03T05:16:59.123Z,5.63
2018-08-03T05:17:59.439Z,5.63
2018-08-03T05:18:59.096Z,5.63
2018-08-03T05:19:59.080Z,5.63
2018-08-03T05:20:59.419Z,5.63
2018-08-03T05:21:59.087Z,5.63
2018-08-03T05:22:59.419Z,5.63
2018-08-03T05:23:59.398Z,5.63
2018-08-03T05:24:59.066Z,5.63
2018-08-03T05:25:59.385Z,5.63
2018-08-03T05:26:59.375Z,5.63
2018-08-03T05:27:59.066Z,5.63
2018-08-03T05:28:59.358Z,5.63
2018-08-03T05:29:59.032Z,5.63
2018-08-03T05:30:59.027Z,5.63
2018-08-03T05:31:59.020Z,5.63
2018-08-03T05:32:59.021Z,5.63
2018-08-03T05:33:59.352Z,5.63
2018-08-03T05:34:58.985Z,5.63
2018-08-03T05:35:59.387Z,5.63
2018-08-03T05:36:58.979Z,5.63
2018-08-03T05:37:58.991Z,5.63
2018-08-03T05:38:58.992Z,5.63
2018-08-03T05:39:58.969Z,5.63
2018-08-03T05:40:58.968Z,5.63
2018-08-03T05:41:59.299Z,5.63
2018-08-03T05:42:59.275Z,5.63
2018-08-03T05:43:58.938Z,5.63
2018-08-03T05:44:58.924Z,5.63
2018-08-03T05:45:58.915Z,5.63
2018-08-03T05:46:58.912Z,5.63
2018-08-03T05:47:59.233Z,5.63
2018-08-03T05:48:58.918Z,5.63
2018-08-03T05:49:59.227Z,5.63
2018-08-03T05:50:59.249Z,5.63
2018-08-03T05:51:59.221Z,5.63
2018-08-03T05:52:59.240Z,0.00
2018-08-03T05:53:59.215Z,5.63
2018-08-03T05:54:59.186Z,5.63
2018-08-03T05:55:59.204Z,5.63
2018-08-03T05:56:59.185Z,5.63
2018-08-03T05:57:58.924Z,5.63
2018-08-03T05:58:59.173Z,5.63
2018-08-03T05:59:59.163Z,0.00
2018-08-03T06:00:59.178Z,0.00
2018-08-03T06:01:59.152Z,5.63
2018-08-03T06:02:59.165Z,5.63
2018-08-03T06:03:59.198Z,5.63
2018-08-03T06:04:58.817Z,5.63
2018-08-03T06:05:59.148Z,5.63
2018-08-03T06:06:59.136Z,5.63
2018-08-03T06:07:59.139Z,5.63
2018-08-03T06:08:59.122Z,5.63
2018-08-03T06:09:59.102Z,0.00
2018-08-03T06:10:59.097Z,0.00
2018-08-03T06:11:58.745Z,0.00
2018-08-03T06:12:58.777Z,0.00
2018-08-03T06:13:59.095Z,0.00
2018-08-03T06:14:58.759Z,5.63
2018-08-03T06:15:59.061Z,5.63
2018-08-03T06:16:58.722Z,5.63
2018-08-03T06:17:58.734Z,5.63
2018-08-03T06:18:59.067Z,5.63
2018-08-03T06:19:59.037Z,0.00
2018-08-03T06:20:58.716Z,0.00
2018-08-03T06:21:59.046Z,5.63
2018-08-03T06:22:59.038Z,5.63
2018-08-03T06:23:58.683Z,5.63
2018-08-03T06:24:58.687Z,5.63
2018-08-03T06:25:58.997Z,0.00
2018-08-03T06:26:58.993Z,0.00
2018-08-03T06:27:59.003Z,0.00
2018-08-03T06:28:58.670Z,0.00
2018-08-03T06:29:58.637Z,0.00
2018-08-03T06:30:58.650Z,0.00
2018-08-03T06:31:58.980Z,0.00
2018-08-03T06:32:58.954Z,0.00
2018-08-03T06:33:59.001Z,0.00
2018-08-03T06:34:58.611Z,0.00
2018-08-03T06:35:58.617Z,0.00
2018-08-03T06:36:58.598Z,0.00
2018-08-03T06:37:58.609Z,0.00
2018-08-03T06:38:58.593Z,0.00
2018-08-03T06:39:58.591Z,0.00
2018-08-03T06:40:58.590Z,0.00
2018-08-03T06:41:58.896Z,0.00
2018-08-03T06:42:58.566Z,0.00
2018-08-03T06:43:58.571Z,0.00
2018-08-03T06:44:58.886Z,0.00
2018-08-03T06:45:58.887Z,0.00
2018-08-03T06:46:58.863Z,0.00
2018-08-03T06:47:58.875Z,0.00
2018-08-03T06:48:58.526Z,0.00
2018-08-03T06:49:58.528Z,0.00
2018-08-03T06:50:58.863Z,0.00
2018-08-03T06:51:58.850Z,0.00
2018-08-03T06:52:58.838Z,0.00
2018-08-03T06:53:58.523Z,0.00
2018-08-03T06:54:58.828Z,0.00
2018-08-03T06:55:58.808Z,0.00
2018-08-03T06:56:58.483Z,0.00
2018-08-03T06:57:58.489Z,0.00
2018-08-03T06:58:58.795Z,0.00
2018-08-03T06:59:58.797Z,0.00
2018-08-03T07:00:58.798Z,0.00
2018-08-03T07:01:58.427Z,0.00
2018-08-03T07:02:58.856Z,0.00
2018-08-03T07:03:58.460Z,0.00
2018-08-03T07:04:58.766Z,0.00
2018-08-03T07:05:58.763Z,0.00
2018-08-03T07:06:58.433Z,0.00
2018-08-03T07:07:58.747Z,0.00
2018-08-03T07:08:58.725Z,0.00
2018-08-03T07:09:58.718Z,0.00
2018-08-03T07:10:58.709Z,0.00
2018-08-03T07:11:58.706Z,0.00
2018-08-03T07:12:58.691Z,0.00
2018-08-03T07:13:58.709Z,0.00
2018-08-03T07:14:58.360Z,0.00
2018-08-03T07:15:58.358Z,0.00
2018-08-03T07:16:58.346Z,0.00
2018-08-03T07:17:58.327Z,0.00
2018-08-03T07:18:58.665Z,0.00
2018-08-03T07:19:58.352Z,0.00
2018-08-03T07:20:58.310Z,0.00
2018-08-03T07:21:58.654Z,0.00
2018-08-03T07:22:58.304Z,0.00
2018-08-03T07:23:58.626Z,0.00
2018-08-03T07:24:58.323Z,0.00
2018-08-03T07:25:58.666Z,0.00
2018-08-03T07:26:58.312Z,0.00
2018-08-03T07:27:58.285Z,0.00
2018-08-03T07:28:58.267Z,0.00
2018-08-03T07:29:58.292Z,0.00
2018-08-03T07:30:58.265Z,0.00
2018-08-03T07:31:58.589Z,0.00
2018-08-03T07:32:58.247Z,0.00
2018-08-03T07:33:58.577Z,0.00
2018-08-03T07:34:58.239Z,0.00
2018-08-03T07:35:58.236Z,0.00
2018-08-03T07:36:58.251Z,0.00
2018-08-03T07:37:58.536Z,0.00
2018-08-03T07:38:58.549Z,0.00
2018-08-03T07:39:58.200Z,0.00
2018-08-03T07:40:58.177Z,0.00
2018-08-03T07:41:58.556Z,0.00
2018-08-03T07:42:58.586Z,0.00
2018-08-03T07:43:58.189Z,0.00
2018-08-03T07:44:58.526Z,0.00
2018-08-03T07:45:58.170Z,0.00
2018-08-03T07:46:58.476Z,0.00
2018-08-03T07:47:58.172Z,0.00
2018-08-03T07:48:58.147Z,0.00
2018-08-03T07:49:58.138Z,0.00
2018-08-03T07:50:58.453Z,0.00
2018-08-03T07:51:58.106Z,0.00
2018-08-03T07:52:58.451Z,0.00
2018-08-03T07:53:58.444Z,0.00
2018-08-03T07:54:58.431Z,0.00
2018-08-03T07:55:58.437Z,0.00
2018-08-03T07:56:58.415Z,0.00
2018-08-03T07:57:58.421Z,0.00
2018-08-03T07:58:58.412Z,0.00
2018-08-03T07:59:58.389Z,0.00
2018-08-03T08:00:58.419Z,0.00
2018-08-03T08:01:58.378Z,0.00
2018-08-03T08:02:58.389Z,0.00
2018-08-03T08:03:58.381Z,0.00
2018-08-03T08:04:58.365Z,0.00
2018-08-03T08:05:58.374Z,0.00
2018-08-03T08:06:58.020Z,0.00
2018-08-03T08:07:58.335Z,0.00
2018-08-03T08:08:58.017Z,0.00
2018-08-03T08:09:58.328Z,0.00
2018-08-03T08:10:57.992Z,0.00
2018-08-03T08:11:58.332Z,0.00
2018-08-03T08:12:57.987Z,0.00
2018-08-03T08:13:57.970Z,0.00
2018-08-03T08:14:57.973Z,0.00
2018-08-03T08:15:58.287Z,0.00
2018-08-03T08:16:58.008Z,0.00
2018-08-03T08:17:57.946Z,0.00
2018-08-03T08:18:58.290Z,0.00
2018-08-03T08:19:57.943Z,0.00
2018-08-03T08:20:57.938Z,0.00
2018-08-03T08:21:58.263Z,0.00
2018-08-03T08:22:58.237Z,0.00
2018-08-03T08:23:58.229Z,0.00
2018-08-03T08:24:57.885Z,0.00
2018-08-03T08:25:57.907Z,0.00
2018-08-03T08:26:57.890Z,0.00
2018-08-03T08:27:57.894Z,0.00
2018-08-03T08:28:58.217Z,0.00
2018-08-03T08:29:58.214Z,0.00
2018-08-03T08:30:57.845Z,0.00
2018-08-03T08:31:57.875Z,0.00
2018-08-03T08:32:57.857Z,0.00
2018-08-03T08:33:58.196Z,0.00
2018-08-03T08:34:58.178Z,0.00
2018-08-03T08:35:57.837Z,0.00
2018-08-03T08:36:58.224Z,0.00
2018-08-03T08:37:57.824Z,0.00
2018-08-03T08:38:57.820Z,0.00
2018-08-03T08:39:58.127Z,0.00
2018-08-03T08:40:58.127Z,0.00
2018-08-03T08:41:58.119Z,0.00
2018-08-03T08:42:57.771Z,0.00
2018-08-03T08:43:58.291Z,0.00
2018-08-03T08:44:57.781Z,0.00
2018-08-03T08:45:58.090Z,0.00
2018-08-03T08:46:58.096Z,0.00
2018-08-03T08:47:58.094Z,0.00
2018-08-03T08:48:58.095Z,0.00
2018-08-03T08:49:58.073Z,0.00
2018-08-03T08:50:57.738Z,0.00
2018-08-03T08:51:58.049Z,0.00
2018-08-03T08:52:57.769Z,0.00
2018-08-03T08:53:58.045Z,0.00
2018-08-03T08:54:57.699Z,0.00
2018-08-03T08:55:57.713Z,0.00
2018-08-03T08:56:58.015Z,0.00
2018-08-03T08:57:58.030Z,0.00
2018-08-03T08:58:57.671Z,0.00
2018-08-03T08:59:58.018Z,0.00
2018-08-03T09:00:57.716Z,0.00
2018-08-03T09:01:57.675Z,0.00
2018-08-03T09:02:57.996Z,0.00
2018-08-03T09:03:57.656Z,0.00
2018-08-03T09:04:57.653Z,0.00
2018-08-03T09:05:57.633Z,0.00
2018-08-03T09:06:57.981Z,0.00
2018-08-03T09:07:57.946Z,0.00
2018-08-03T09:08:57.618Z,0.00
2018-08-03T09:09:57.624Z,0.00
2018-08-03T09:10:57.600Z,0.00
2018-08-03T09:11:57.610Z,0.00
2018-08-03T09:12:57.591Z,0.00
2018-08-03T09:13:57.927Z,0.00
2018-08-03T09:14:57.903Z,0.00
2018-08-03T09:15:57.919Z,0.00
2018-08-03T09:16:57.561Z,0.00
2018-08-03T09:17:57.904Z,0.00
2018-08-03T09:18:57.549Z,0.00
2018-08-03T09:19:57.535Z,0.00
2018-08-03T09:20:57.862Z,0.00
2018-08-03T09:21:57.587Z,0.00
2018-08-03T09:22:57.848Z,0.00
2018-08-03T09:23:57.843Z,0.00
2018-08-03T09:24:57.496Z,0.00
2018-08-03T09:25:57.513Z,0.00
2018-08-03T09:26:57.822Z,0.00
2018-08-03T09:27:57.832Z,0.00
2018-08-03T09:28:57.818Z,0.00
2018-08-03T09:29:57.803Z,0.00
2018-08-03T09:30:57.536Z,0.00
2018-08-03T09:31:57.477Z,0.00
2018-08-03T09:32:57.806Z,0.00
2018-08-03T09:33:57.770Z,0.00
2018-08-03T09:34:57.433Z,0.00
2018-08-03T09:35:57.763Z,0.00
2018-08-03T09:36:57.443Z,0.00
2018-08-03T09:37:57.753Z,0.00
2018-08-03T09:38:57.762Z,0.00
2018-08-03T09:39:57.449Z,0.00
2018-08-03T09:40:57.730Z,0.00
2018-08-03T09:41:57.725Z,0.00
2018-08-03T09:42:57.465Z,0.00
2018-08-03T09:43:57.393Z,0.00
2018-08-03T09:44:57.358Z,0.00
2018-08-03T09:45:57.708Z,0.00
2018-08-03T09:46:57.364Z,0.00
2018-08-03T09:47:57.357Z,0.00
2018-08-03T09:48:57.367Z,0.00
2018-08-03T09:49:57.687Z,0.00
2018-08-03T09:50:57.665Z,0.00
2018-08-03T09:51:57.321Z,0.00
2018-08-03T09:52:57.334Z,0.00
2018-08-03T09:53:57.311Z,0.00
2018-08-03T09:54:57.639Z,0.00
2018-08-03T09:55:57.305Z,0.00
2018-08-03T09:56:57.625Z,0.00
2018-08-03T09:57:57.311Z,0.00
2018-08-03T09:58:57.621Z,0.00
2018-08-03T09:59:57.627Z,0.00
2018-08-03T10:00:57.604Z,0.00
2018-08-03T10:01:57.590Z,0.00
2018-08-03T10:02:57.607Z,0.00
2018-08-03T10:03:57.267Z,0.00
2018-08-03T10:04:57.237Z,0.00
2018-08-03T10:05:57.583Z,0.00
2018-08-03T10:06:57.560Z,0.00
2018-08-03T10:07:57.574Z,0.00
2018-08-03T10:08:57.564Z,0.00
2018-08-03T10:09:57.215Z,0.00
2018-08-03T10:10:57.551Z,0.00
2018-08-03T10:11:57.529Z,0.00
2018-08-03T10:12:57.217Z,0.00
2018-08-03T10:13:57.204Z,0.00
2018-08-03T10:14:57.525Z,0.00
2018-08-03T10:15:57.212Z,0.00
2018-08-03T10:16:57.493Z,0.00
2018-08-03T10:17:57.158Z,0.00
2018-08-03T10:18:57.472Z,0.00
2018-08-03T10:19:57.492Z,0.00
2018-08-03T10:20:57.468Z,0.00
2018-08-03T10:21:57.156Z,0.00
2018-08-03T10:22:57.472Z,0.00
2018-08-03T10:23:57.133Z,0.00
2018-08-03T10:24:57.120Z,0.00
2018-08-03T10:25:57.461Z,0.00
2018-08-03T10:26:57.427Z,0.00
2018-08-03T10:27:57.444Z,0.00
2018-08-03T10:28:57.432Z,0.00
2018-08-03T10:29:57.102Z,0.00
2018-08-03T10:30:57.089Z,0.00
2018-08-03T10:31:57.397Z,0.00
2018-08-03T10:32:57.389Z,0.00
2018-08-03T10:33:57.063Z,0.00
2018-08-03T10:34:57.410Z,0.00
2018-08-03T10:35:57.052Z,0.00
2018-08-03T10:36:57.052Z,0.00
2018-08-03T10:37:57.361Z,0.00
2018-08-03T10:38:57.022Z,0.00
2018-08-03T10:39:57.362Z,0.00
2018-08-03T10:40:57.022Z,0.00
2018-08-03T10:41:57.329Z,0.00
2018-08-03T10:42:57.087Z,0.00
2018-08-03T10:43:57.316Z,0.00
2018-08-03T10:44:57.314Z,0.00
2018-08-03T10:45:56.979Z,0.00
2018-08-03T10:46:57.318Z,0.00
2018-08-03T10:47:57.294Z,0.00
2018-08-03T10:48:57.283Z,0.00
2018-08-03T10:49:56.951Z,0.00
2018-08-03T10:50:56.960Z,0.00
2018-08-03T10:51:56.925Z,0.00
2018-08-03T10:52:56.952Z,0.00
2018-08-03T10:53:57.252Z,0.00
2018-08-03T10:54:57.801Z,0.00
2018-08-03T10:55:57.240Z,0.00
2018-08-03T10:56:57.231Z,0.00
2018-08-03T10:57:57.250Z,0.00
2018-08-03T10:58:57.236Z,0.00
2018-08-03T10:59:56.904Z,0.00
2018-08-03T11:00:56.876Z,0.00
2018-08-03T11:01:56.882Z,0.00
2018-08-03T11:02:56.887Z,0.00
2018-08-03T11:03:56.872Z,0.00
2018-08-03T11:04:57.180Z,0.00
2018-08-03T11:05:57.173Z,0.00
2018-08-03T11:06:56.842Z,0.00
2018-08-03T11:07:56.836Z,0.00
2018-08-03T11:08:57.171Z,0.00
2018-08-03T11:09:56.827Z,0.00
2018-08-03T11:10:56.844Z,0.00
2018-08-03T11:11:57.131Z,0.00
2018-08-03T11:12:56.815Z,0.00
2018-08-03T11:13:57.159Z,0.00
2018-08-03T11:14:57.135Z,0.00
2018-08-03T11:15:57.134Z,0.00
2018-08-03T11:16:56.784Z,0.00
2018-08-03T11:17:57.099Z,0.00
2018-08-03T11:18:56.771Z,0.00
2018-08-03T11:19:56.759Z,0.00
2018-08-03T11:20:56.752Z,0.00
2018-08-03T11:21:57.083Z,0.00
2018-08-03T11:22:56.734Z,0.00
2018-08-03T11:23:56.727Z,0.00
2018-08-03T11:24:56.739Z,0.00
2018-08-03T11:25:57.043Z,0.00
2018-08-03T11:26:57.055Z,0.00
2018-08-03T11:27:57.027Z,0.00
2018-08-03T11:28:56.701Z,0.00
2018-08-03T11:29:56.678Z,0.00
2018-08-03T11:30:57.028Z,0.00
2018-08-03T11:31:57.000Z,0.00
2018-08-03T11:32:56.699Z,0.00
2018-08-03T11:33:56.657Z,0.00
2018-08-03T11:34:56.995Z,0.00
2018-08-03T11:35:56.989Z,0.00
2018-08-03T11:36:56.978Z,0.00
2018-08-03T11:37:56.960Z,0.00
2018-08-03T11:38:56.972Z,0.00
2018-08-03T11:39:56.624Z,0.00
2018-08-03T11:40:56.690Z,0.00
2018-08-03T11:41:56.617Z,0.00
2018-08-03T11:42:56.945Z,0.00
2018-08-03T11:43:56.921Z,0.00
2018-08-03T11:44:56.917Z,0.00
2018-08-03T11:45:56.598Z,0.00
2018-08-03T11:46:56.905Z,0.00
2018-08-03T11:47:56.917Z,0.00
2018-08-03T11:48:56.574Z,0.00
2018-08-03T11:49:56.892Z,0.00
2018-08-03T11:50:56.905Z,0.00
2018-08-03T11:51:56.884Z,0.00
2018-08-03T11:52:56.864Z,0.00
2018-08-03T11:53:56.924Z,0.00
2018-08-03T11:54:56.850Z,0.00
2018-08-03T11:55:56.864Z,0.00
2018-08-03T11:56:56.502Z,0.00
2018-08-03T11:57:56.521Z,0.00
2018-08-03T11:58:56.844Z,0.00
2018-08-03T11:59:56.836Z,0.00
2018-08-03T12:00:56.818Z,0.00
2018-08-03T12:01:56.555Z,0.00
2018-08-03T12:02:56.479Z,0.00
2018-08-03T12:03:56.476Z,0.00
2018-08-03T12:04:56.469Z,0.00
2018-08-03T12:05:56.474Z,0.00
2018-08-03T12:06:56.436Z,0.00
2018-08-03T12:07:56.467Z,0.00
2018-08-03T12:08:56.785Z,0.00
2018-08-03T12:09:56.446Z,0.00
2018-08-03T12:10:56.773Z,0.00
2018-08-03T12:11:56.401Z,0.00
2018-08-03T12:12:56.749Z,0.00
2018-08-03T12:13:56.407Z,0.00
2018-08-03T12:14:56.736Z,0.00
2018-08-03T12:15:56.711Z,0.00
2018-08-03T12:16:56.366Z,0.00
2018-08-03T12:17:56.437Z,0.00
2018-08-03T12:18:56.708Z,0.00
2018-08-03T12:19:56.356Z,0.00
2018-08-03T12:20:56.362Z,0.00
2018-08-03T12:21:56.359Z,0.00
2018-08-03T12:22:56.337Z,0.00
2018-08-03T12:23:56.742Z,0.00
2018-08-03T12:24:56.324Z,0.00
2018-08-03T12:25:56.647Z,0.00
2018-08-03T12:26:56.658Z,0.00
2018-08-03T12:27:56.637Z,0.00
2018-08-03T12:28:56.303Z,0.00
2018-08-03T12:29:56.628Z,0.00
2018-08-03T12:30:56.618Z,0.00
2018-08-03T12:31:56.610Z,0.00
2018-08-03T12:32:56.285Z,0.00
2018-08-03T12:33:56.277Z,0.00
2018-08-03T12:34:56.277Z,0.00
2018-08-03T12:35:56.244Z,0.00
2018-08-03T12:36:56.577Z,0.00
2018-08-03T12:37:56.591Z,0.00
2018-08-03T12:38:56.247Z,0.00
2018-08-03T12:39:56.241Z,0.00
2018-08-03T12:40:56.263Z,0.00
2018-08-03T12:41:56.546Z,0.00
2018-08-03T12:42:56.221Z,0.00
2018-08-03T12:43:56.548Z,0.00
2018-08-03T12:44:56.201Z,0.00
2018-08-03T12:45:56.242Z,0.00
2018-08-03T12:46:56.520Z,0.00
2018-08-03T12:47:56.167Z,0.00
2018-08-03T12:48:56.514Z,0.00
2018-08-03T12:49:56.179Z,0.00
2018-08-03T12:50:56.500Z,0.00
2018-08-03T12:51:56.160Z,0.00
2018-08-03T12:52:56.165Z,0.00
2018-08-03T12:53:56.481Z,0.00
2018-08-03T12:54:56.137Z,0.00
2018-08-03T12:55:56.134Z,0.00
2018-08-03T12:56:56.462Z,0.00
2018-08-03T12:57:56.140Z,0.00
2018-08-03T12:58:56.119Z,0.00
2018-08-03T12:59:56.424Z,0.00
2018-08-03T13:00:56.105Z,0.00
2018-08-03T13:01:56.079Z,0.00
2018-08-03T13:02:56.063Z,0.00
2018-08-03T13:03:56.074Z,0.00
2018-08-03T13:04:56.066Z,0.00
2018-08-03T13:05:56.394Z,0.00
2018-08-03T13:06:56.066Z,0.00
2018-08-03T13:07:56.286Z,0.00
2018-08-03T13:08:56.379Z,0.00
2018-08-03T13:09:56.041Z,0.00
2018-08-03T13:10:56.354Z,0.00
2018-08-03T13:11:56.346Z,0.00